Time;durP1;ratioP1;P1;durP2;ratioP2;P2;SDS_P1;SDS_P2;PMS_P1;PMS_P2;Temp;Humidity;BMP_temperature;BMP_pressure;BME280_temperature;BME280_humidity;BME280_pressure;Samples;Min_cycle;Max_cycle;Signal;HPM_P1;HPM_P2
2021/12/12 00:00:44;;;;;;;24.53;9.57;;;;;4.20;101534.00;;;;5012533;28;20300;-71
2021/12/12 00:03:38;;;;;;;25.97;9.83;;;;;4.20;101524.00;;;;4993644;28;20289;-72
2021/12/12 00:06:29;;;;;;;26.83;9.47;;;;;4.10;101522.00;;;;4987988;28;20239;-73
2021/12/12 00:09:23;;;;;;;19.03;8.77;;;;;4.00;101515.00;;;;5014639;28;20307;-72
2021/12/12 00:12:14;;;;;;;18.93;9.00;;;;;4.00;101515.00;;;;4985485;28;20269;-73
2021/12/12 00:15:01;;;;;;;20.63;8.03;;;;;4.00;101517.00;;;;4989947;28;20269;-73
2021/12/12 00:17:49;;;;;;;21.17;8.87;;;;;4.00;101520.00;;;;4984862;28;20253;-73
2021/12/12 00:20:36;;;;;;;18.13;7.77;;;;;4.00;101508.00;;;;5012295;28;20302;-72
2021/12/12 00:23:23;;;;;;;14.50;7.07;;;;;4.00;101521.00;;;;5015118;28;20248;-74
2021/12/12 00:26:09;;;;;;;20.13;7.47;;;;;4.20;101511.00;;;;5008895;28;20692;-73
2021/12/12 00:28:56;;;;;;;16.43;7.47;;;;;4.20;101509.00;;;;4993288;28;20227;-73
2021/12/12 00:31:43;;;;;;;19.20;6.93;;;;;4.10;101506.00;;;;4991233;28;20277;-73
2021/12/12 00:34:38;;;;;;;16.50;6.77;;;;;4.00;101507.00;;;;4987809;28;20239;-73
2021/12/12 00:37:24;;;;;;;16.97;6.47;;;;;4.10;101502.00;;;;4994151;28;20582;-72
2021/12/12 00:40:19;;;;;;;16.10;6.30;;;;;4.20;101493.00;;;;4989914;28;20238;-72
2021/12/12 00:43:14;;;;;;;17.10;7.40;;;;;4.20;101488.00;;;;5004235;28;20243;-72
2021/12/12 00:46:04;;;;;;;24.17;7.33;;;;;4.00;101489.00;;;;5008488;28;20293;-72
2021/12/12 00:48:50;;;;;;;11.17;5.87;;;;;4.00;101493.00;;;;4991199;28;20308;-72
2021/12/12 00:51:43;;;;;;;13.90;6.07;;;;;4.10;101486.00;;;;5004847;28;20285;-73
2021/12/12 00:54:31;;;;;;;16.43;6.00;;;;;4.10;101487.00;;;;5007973;28;20740;-74
2021/12/12 00:57:20;;;;;;;16.80;6.37;;;;;4.20;101494.00;;;;5009288;28;20757;-71
2021/12/12 01:00:08;;;;;;;13.93;6.00;;;;;4.10;101485.00;;;;5009005;28;20790;-71
2021/12/12 01:02:56;;;;;;;15.53;5.97;;;;;4.20;101490.00;;;;5006171;28;20274;-73
2021/12/12 01:05:46;;;;;;;14.70;6.00;;;;;4.20;101481.00;;;;5017016;28;20226;-73
2021/12/12 01:08:34;;;;;;;11.83;5.60;;;;;4.10;101476.00;;;;5001357;28;20233;-73
2021/12/12 01:11:25;;;;;;;18.23;6.13;;;;;4.20;101481.00;;;;5007986;28;20330;-75
2021/12/12 01:14:14;;;;;;;14.13;5.63;;;;;4.20;101483.00;;;;5005044;28;20229;-71
2021/12/12 01:17:05;;;;;;;18.10;6.17;;;;;4.10;101486.00;;;;5002786;28;20233;-72
2021/12/12 01:19:56;;;;;;;11.87;5.47;;;;;4.30;101486.00;;;;5001119;28;20879;-73
2021/12/12 01:22:44;;;;;;;16.03;5.63;;;;;4.30;101482.00;;;;5002590;28;20257;-70
2021/12/12 01:25:34;;;;;;;14.80;5.43;;;;;4.30;101489.00;;;;5007707;28;20736;-73
2021/12/12 01:28:24;;;;;;;9.80;5.10;;;;;4.40;101496.00;;;;5007976;28;20254;-72
2021/12/12 01:31:14;;;;;;;14.63;5.33;;;;;4.40;101488.00;;;;5003627;28;20285;-73
2021/12/12 01:34:11;;;;;;;9.70;5.10;;;;;4.50;101494.00;;;;5004370;28;20768;-72
2021/12/12 01:37:11;;;;;;;14.33;6.03;;;;;4.40;101485.00;;;;5015666;28;20252;-72
2021/12/12 01:40:00;;;;;;;14.67;5.33;;;;;4.40;101472.00;;;;5003412;28;20254;-72
2021/12/12 01:42:53;;;;;;;14.50;5.10;;;;;4.30;101490.00;;;;4984460;28;20635;-73
2021/12/12 01:45:46;;;;;;;10.10;4.47;;;;;4.30;101492.00;;;;5019305;28;20238;-71
2021/12/12 01:48:40;;;;;;;8.73;4.03;;;;;4.40;101484.00;;;;5008623;28;20327;-72
2021/12/12 01:51:29;;;;;;;10.20;4.30;;;;;4.50;101480.00;;;;5010173;28;20230;-74
2021/12/12 01:54:21;;;;;;;9.03;4.20;;;;;4.50;101478.00;;;;4988390;28;20250;-74
2021/12/12 01:57:08;;;;;;;12.40;5.33;;;;;4.20;101473.00;;;;5008181;28;20276;-73
2021/12/12 01:59:59;;;;;;;8.17;4.63;;;;;4.50;101466.00;;;;5009051;28;20237;-68
2021/12/12 02:02:46;;;;;;;6.80;3.97;;;;;4.40;101468.00;;;;4999616;28;20300;-73
2021/12/12 02:05:34;;;;;;;7.40;4.13;;;;;4.50;101476.00;;;;5016138;28;20237;-72
2021/12/12 02:08:22;;;;;;;10.27;3.80;;;;;4.60;101468.00;;;;5010985;28;20303;-73
2021/12/12 02:11:12;;;;;;;9.13;4.20;;;;;4.50;101468.00;;;;5007579;28;20615;-70
2021/12/12 02:14:07;;;;;;;11.97;4.33;;;;;4.50;101477.00;;;;5006560;28;20308;-71
2021/12/12 02:17:00;;;;;;;11.10;4.27;;;;;4.60;101469.00;;;;5003555;28;20234;-69
2021/12/12 02:20:02;;;;;;;5.67;3.90;;;;;4.70;101462.00;;;;4984347;28;20617;-72
2021/12/12 02:23:03;;;;;;;6.70;4.10;;;;;4.70;101465.00;;;;5003496;28;20229;-73
2021/12/12 02:35:12;;;;;;;9.83;4.20;;;;;4.70;101452.00;;;;4972796;28;20225;-71
2021/12/12 02:38:00;;;;;;;10.20;3.83;;;;;4.70;101458.00;;;;4990550;28;20367;-72
2021/12/12 02:40:50;;;;;;;9.00;3.83;;;;;4.70;101456.00;;;;4987655;28;20239;-72
2021/12/12 02:43:40;;;;;;;8.83;3.80;;;;;4.80;101460.00;;;;4998321;28;20234;-72
2021/12/12 02:46:32;;;;;;;6.73;3.70;;;;;4.90;101453.00;;;;4998178;28;20233;-73
2021/12/12 02:49:37;;;;;;;8.90;3.60;;;;;5.10;101457.00;;;;4998061;28;20238;-72
2021/12/12 02:52:26;;;;;;;6.07;3.80;;;;;5.00;101460.00;;;;5011583;28;20240;-73
2021/12/12 02:55:17;;;;;;;12.67;4.13;;;;;5.00;101450.00;;;;4991455;28;20230;-73
2021/12/12 02:58:06;;;;;;;7.17;3.80;;;;;4.90;101458.00;;;;5000928;28;20233;-72
2021/12/12 03:01:02;;;;;;;9.77;3.50;;;;;4.80;101458.00;;;;4988167;28;20230;-72
2021/12/12 03:03:49;;;;;;;9.07;3.60;;;;;4.80;101458.00;;;;5003398;28;20248;-71
2021/12/12 03:06:38;;;;;;;11.37;4.00;;;;;5.00;101445.00;;;;5009537;28;20297;-72
2021/12/12 03:09:33;;;;;;;9.90;3.70;;;;;4.90;101464.00;;;;5014489;28;20272;-70
2021/12/12 03:12:30;;;;;;;8.13;3.60;;;;;4.90;101440.00;;;;5007554;28;20234;-71
2021/12/12 03:15:19;;;;;;;9.17;3.73;;;;;4.90;101464.00;;;;5009820;28;20233;-72
2021/12/12 03:18:13;;;;;;;8.73;3.97;;;;;4.90;101463.00;;;;4993735;28;20309;-72
2021/12/12 03:21:14;;;;;;;9.77;3.70;;;;;4.90;101468.00;;;;5006865;28;20723;-72
2021/12/12 03:24:06;;;;;;;7.57;3.73;;;;;5.00;101474.00;;;;5016876;28;20239;-72
2021/12/12 03:26:57;;;;;;;6.03;3.50;;;;;5.10;101460.00;;;;5003443;28;20753;-72
2021/12/12 03:29:45;;;;;;;9.53;3.80;;;;;5.00;101455.00;;;;4981156;28;20242;-70
2021/12/12 03:32:33;;;;;;;9.97;3.73;;;;;4.90;101463.00;;;;5002647;28;20233;-72
2021/12/12 03:35:19;;;;;;;10.63;3.30;;;;;4.90;101441.00;;;;5002126;28;20237;-72
2021/12/12 03:38:06;;;;;;;5.90;3.60;;;;;4.90;101451.00;;;;5017624;28;20611;-71
2021/12/12 03:40:52;;;;;;;9.00;4.20;;;;;4.90;101435.00;;;;5011891;28;20248;-72
2021/12/12 03:43:39;;;;;;;8.83;3.87;;;;;4.90;101457.00;;;;5019466;28;20249;-72
2021/12/12 03:46:27;;;;;;;12.07;4.13;;;;;4.90;101448.00;;;;5017775;28;20237;-72
2021/12/12 03:49:14;;;;;;;11.57;3.80;;;;;4.90;101442.00;;;;5019743;28;20275;-71
2021/12/12 03:52:01;;;;;;;10.07;4.03;;;;;4.80;101444.00;;;;5005996;28;20367;-72
2021/12/12 03:54:49;;;;;;;10.07;4.03;;;;;4.90;101448.00;;;;5016124;28;20232;-70
2021/12/12 03:57:36;;;;;;;8.00;3.80;;;;;4.90;101450.00;;;;5028435;28;20275;-70
2021/12/12 04:00:27;;;;;;;8.33;4.00;;;;;4.90;101441.00;;;;5048756;28;20252;-75
2021/12/12 04:03:15;;;;;;;7.47;3.80;;;;;4.80;101454.00;;;;5027542;28;20296;-71
2021/12/12 04:06:07;;;;;;;8.67;3.80;;;;;4.90;101446.00;;;;5005112;28;20256;-72
2021/12/12 04:08:54;;;;;;;10.27;4.70;;;;;4.80;101446.00;;;;5021410;28;20294;-71
2021/12/12 04:11:45;;;;;;;14.13;3.90;;;;;4.80;101449.00;;;;5016736;28;20222;-75
2021/12/12 04:14:31;;;;;;;9.33;4.10;;;;;4.70;101422.00;;;;5043667;28;20261;-74
2021/12/12 04:17:21;;;;;;;8.30;3.77;;;;;4.80;101449.00;;;;5037650;28;20261;-75
2021/12/12 04:20:14;;;;;;;7.07;3.43;;;;;4.70;101454.00;;;;5035486;28;20276;-74
2021/12/12 04:23:00;;;;;;;9.20;3.93;;;;;4.80;101447.00;;;;5014727;28;20243;-74
2021/12/12 04:25:47;;;;;;;11.00;3.80;;;;;4.80;101453.00;;;;5008596;28;20287;-74
2021/12/12 04:28:33;;;;;;;6.30;3.80;;;;;4.70;101455.00;;;;5022984;28;21127;-72
2021/12/12 04:31:22;;;;;;;11.80;3.60;;;;;4.70;101455.00;;;;5023939;28;20257;-72
2021/12/12 04:34:09;;;;;;;8.87;3.90;;;;;4.60;101446.00;;;;4989812;28;20231;-72
2021/12/12 04:37:00;;;;;;;9.20;3.60;;;;;4.80;101456.00;;;;5003998;28;20721;-75
2021/12/12 04:39:50;;;;;;;9.60;3.90;;;;;4.80;101438.00;;;;4995516;28;20237;-72
2021/12/12 04:42:39;;;;;;;12.77;3.80;;;;;4.70;101444.00;;;;5004449;28;20233;-72
2021/12/12 04:45:39;;;;;;;11.23;3.70;;;;;4.70;101448.00;;;;5015154;28;20287;-73
2021/12/12 04:51:48;;;;;;;11.27;3.97;;;;;4.90;101449.00;;;;4962968;28;20228;-73
2021/12/12 04:54:39;;;;;;;11.50;4.00;;;;;4.90;101449.00;;;;4994328;28;20226;-73
2021/12/12 04:57:30;;;;;;;12.97;4.13;;;;;5.00;101422.00;;;;5000819;28;20285;-73
2021/12/12 05:00:21;;;;;;;11.50;4.27;;;;;4.90;101452.00;;;;5001479;28;20286;-73
2021/12/12 05:03:15;;;;;;;12.77;4.10;;;;;4.90;101451.00;;;;5001897;28;20226;-73
2021/12/12 05:06:04;;;;;;;9.17;4.00;;;;;4.90;101456.00;;;;4999601;28;20379;-73
2021/12/12 05:08:56;;;;;;;8.20;4.03;;;;;4.80;101432.00;;;;5005125;28;20238;-72
2021/12/12 05:11:51;;;;;;;11.63;4.40;;;;;4.90;101432.00;;;;5008421;28;20600;-74
2021/12/12 05:14:41;;;;;;;10.67;4.10;;;;;5.00;101437.00;;;;5003536;28;20428;-74
2021/12/12 05:17:34;;;;;;;11.87;4.20;;;;;4.90;101431.00;;;;5008484;28;20242;-72
2021/12/12 05:20:27;;;;;;;12.33;4.07;;;;;4.80;101421.00;;;;5006999;28;20233;-73
2021/12/12 05:23:16;;;;;;;13.53;4.00;;;;;5.00;101439.00;;;;5014316;28;20241;-72
2021/12/12 05:26:06;;;;;;;14.07;3.80;;;;;4.90;101427.00;;;;5005622;28;20303;-73
2021/12/12 05:29:01;;;;;;;13.77;3.97;;;;;5.10;101420.00;;;;5012674;28;20612;-70
2021/12/12 05:31:49;;;;;;;10.07;4.20;;;;;5.10;101414.00;;;;5000984;28;20354;-72
2021/12/12 05:34:38;;;;;;;11.70;3.93;;;;;5.10;101421.00;;;;5010531;28;20312;-71
2021/12/12 05:37:25;;;;;;;12.13;4.43;;;;;5.10;101405.00;;;;5011173;28;20250;-70
2021/12/12 05:40:12;;;;;;;10.30;4.27;;;;;5.00;101406.00;;;;4988893;28;20231;-72
2021/12/12 05:43:02;;;;;;;12.90;3.97;;;;;5.00;101403.00;;;;5001497;28;20249;-71
2021/12/12 05:45:52;;;;;;;5.17;3.53;;;;;5.10;101401.00;;;;5007192;28;20245;-73
2021/12/12 05:48:41;;;;;;;9.53;3.83;;;;;5.10;101394.00;;;;5001789;28;20246;-72
2021/12/12 05:51:28;;;;;;;13.30;4.17;;;;;5.10;101396.00;;;;5005545;28;20234;-73
2021/12/12 05:54:18;;;;;;;8.90;3.90;;;;;5.10;101407.00;;;;5007850;28;20284;-71
2021/12/12 05:57:04;;;;;;;14.13;4.57;;;;;5.20;101393.00;;;;5002876;28;20233;-70
2021/12/12 05:59:57;;;;;;;18.23;4.57;;;;;5.10;101399.00;;;;5007636;28;20241;-73
2021/12/12 06:02:46;;;;;;;10.47;3.87;;;;;5.20;101410.00;;;;4999111;28;20242;-73
2021/12/12 06:05:32;;;;;;;15.90;4.33;;;;;5.20;101407.00;;;;5007212;28;20234;-72
2021/12/12 06:08:21;;;;;;;11.73;4.67;;;;;5.20;101418.00;;;;4996827;28;20247;-72
2021/12/12 06:11:09;;;;;;;17.03;4.83;;;;;5.20;101416.00;;;;5008651;28;20736;-73
2021/12/12 06:13:57;;;;;;;16.07;5.17;;;;;5.20;101415.00;;;;4985795;28;20390;-72
2021/12/12 06:16:44;;;;;;;12.17;4.97;;;;;5.10;101413.00;;;;4987809;28;20230;-73
2021/12/12 06:19:33;;;;;;;13.47;4.73;;;;;5.20;101416.00;;;;5010039;28;20234;-72
2021/12/12 06:22:19;;;;;;;11.83;5.07;;;;;5.30;101429.00;;;;5010824;28;20250;-71
2021/12/12 06:25:06;;;;;;;21.30;5.20;;;;;5.30;101420.00;;;;5011205;28;20234;-73
2021/12/12 06:27:54;;;;;;;16.37;5.03;;;;;5.30;101433.00;;;;4996497;28;20307;-72
2021/12/12 06:30:41;;;;;;;8.73;4.57;;;;;5.20;101422.00;;;;5008165;28;20903;-73
2021/12/12 06:33:29;;;;;;;14.77;5.57;;;;;5.40;101412.00;;;;4993690;28;20234;-74
2021/12/12 06:36:17;;;;;;;16.43;6.20;;;;;5.40;101407.00;;;;5018856;28;20260;-73
2021/12/12 06:39:07;;;;;;;12.20;4.93;;;;;5.30;101383.00;;;;5012601;28;20225;-73
2021/12/12 06:41:55;;;;;;;16.57;5.13;;;;;5.30;101411.00;;;;5000071;28;20805;-73
2021/12/12 06:44:45;;;;;;;12.87;5.80;;;;;5.30;101409.00;;;;4988097;28;20229;-73
2021/12/12 06:47:31;;;;;;;14.20;5.30;;;;;5.40;101386.00;;;;5009336;28;20585;-73
2021/12/12 06:50:19;;;;;;;11.20;5.20;;;;;5.40;101406.00;;;;5013073;28;20225;-72
2021/12/12 06:53:08;;;;;;;11.10;5.23;;;;;5.40;101406.00;;;;5008768;28;20275;-72
2021/12/12 06:55:56;;;;;;;11.57;5.57;;;;;5.40;101403.00;;;;5008478;28;20228;-71
2021/12/12 06:58:44;;;;;;;11.10;5.43;;;;;5.60;101388.00;;;;5007644;28;20237;-72
2021/12/12 07:01:34;;;;;;;14.40;5.30;;;;;5.50;101396.00;;;;5002348;28;20270;-73
2021/12/12 07:04:21;;;;;;;14.40;5.73;;;;;5.60;101410.00;;;;5006502;28;20242;-72
2021/12/12 07:07:11;;;;;;;12.03;5.03;;;;;5.60;101399.00;;;;5008768;28;20309;-72
2021/12/12 07:09:59;;;;;;;8.23;5.10;;;;;5.60;101397.00;;;;4997181;28;20230;-72
2021/12/12 07:12:48;;;;;;;10.47;5.80;;;;;5.50;101388.00;;;;4997820;28;20237;-72
2021/12/12 07:15:44;;;;;;;12.10;5.53;;;;;5.60;101382.00;;;;5019214;28;20241;-72
2021/12/12 07:18:33;;;;;;;9.93;4.90;;;;;5.80;101401.00;;;;4998940;28;20242;-72
2021/12/12 07:21:20;;;;;;;10.83;5.67;;;;;5.80;101393.00;;;;5006362;28;20237;-72
2021/12/12 07:24:07;;;;;;;8.47;5.00;;;;;5.90;101390.00;;;;5006364;28;20226;-73
2021/12/12 07:26:56;;;;;;;9.90;5.10;;;;;5.70;101394.00;;;;4991119;28;20298;-72
2021/12/12 07:29:42;;;;;;;7.57;5.40;;;;;5.80;101397.00;;;;4986283;28;20304;-74
2021/12/12 07:32:29;;;;;;;8.63;5.57;;;;;5.80;101380.00;;;;4987379;28;20715;-74
2021/12/12 07:35:16;;;;;;;12.77;5.93;;;;;5.90;101385.00;;;;4988042;28;20311;-74
2021/12/12 07:38:06;;;;;;;9.17;5.57;;;;;5.90;101374.00;;;;4978220;28;20324;-74
2021/12/12 07:40:52;;;;;;;11.90;5.67;;;;;5.90;101396.00;;;;5005382;28;20357;-74
2021/12/12 07:43:40;;;;;;;12.47;5.50;;;;;5.90;101406.00;;;;4992008;28;20238;-74
2021/12/12 07:46:28;;;;;;;11.30;5.97;;;;;5.80;101394.00;;;;5000246;28;20281;-73
2021/12/12 07:49:16;;;;;;;9.17;5.60;;;;;6.00;101397.00;;;;5007322;28;20753;-73
2021/12/12 07:52:05;;;;;;;10.13;5.63;;;;;6.00;101421.00;;;;4997631;28;20230;-74
2021/12/12 07:54:54;;;;;;;11.10;6.07;;;;;5.90;101412.00;;;;4984958;28;20234;-74
2021/12/12 07:57:42;;;;;;;10.67;6.53;;;;;5.90;101421.00;;;;4978271;28;20290;-73
2021/12/12 08:00:31;;;;;;;11.37;6.30;;;;;6.00;101430.00;;;;5015458;28;20232;-73
2021/12/12 08:03:23;;;;;;;11.30;6.30;;;;;5.90;101434.00;;;;4996177;28;20233;-74
2021/12/12 08:06:13;;;;;;;14.03;7.17;;;;;6.10;101441.00;;;;4983519;28;20378;-72
2021/12/12 08:09:01;;;;;;;14.80;6.93;;;;;5.90;101432.00;;;;4997276;28;20724;-72
2021/12/12 08:11:48;;;;;;;11.97;7.40;;;;;6.00;101443.00;;;;4996439;28;20224;-73
2021/12/12 08:14:34;;;;;;;13.50;7.30;;;;;5.90;101449.00;;;;5007554;28;20233;-73
2021/12/12 08:17:23;;;;;;;14.70;7.13;;;;;6.00;101456.00;;;;5007406;28;20229;-72
2021/12/12 08:20:13;;;;;;;14.87;7.70;;;;;6.00;63795.00;;;;4999212;28;20234;-73
2021/12/12 08:23:00;;;;;;;12.47;7.93;;;;;6.00;101474.00;;;;4983396;28;20248;-72
2021/12/12 08:25:49;;;;;;;16.37;7.80;;;;;6.00;101480.00;;;;4984179;28;20222;-73
2021/12/12 08:28:36;;;;;;;13.10;7.57;;;;;6.00;101470.00;;;;5000320;28;20309;-72
2021/12/12 08:31:23;;;;;;;14.40;7.83;;;;;6.10;101476.00;;;;4988300;28;20233;-70
2021/12/12 08:34:11;;;;;;;16.47;8.90;;;;;6.00;101464.00;;;;4990751;28;20238;-73
2021/12/12 08:36:58;;;;;;;15.67;8.07;;;;;6.00;101474.00;;;;5000356;28;20222;-72
2021/12/12 08:39:46;;;;;;;14.17;8.37;;;;;6.20;101474.00;;;;4991535;28;20234;-72
2021/12/12 08:42:33;;;;;;;14.90;8.80;;;;;6.20;101488.00;;;;4995090;28;20238;-74
2021/12/12 08:45:24;;;;;;;17.43;9.20;;;;;6.30;101485.00;;;;4996333;28;20237;-71
2021/12/12 08:48:11;;;;;;;15.17;8.53;;;;;6.20;101487.00;;;;4998486;28;20967;-71
2021/12/12 08:51:04;;;;;;;13.40;9.07;;;;;6.40;101475.00;;;;5009852;28;20323;-71
2021/12/12 08:53:54;;;;;;;18.40;10.03;;;;;6.30;101482.00;;;;5001645;28;20609;-71
2021/12/12 08:56:44;;;;;;;17.80;10.67;;;;;6.30;101483.00;;;;5009538;28;20333;-71
2021/12/12 08:59:34;;;;;;;18.00;10.70;;;;;6.30;101494.00;;;;5008467;28;20246;-72
2021/12/12 09:02:21;;;;;;;15.53;9.90;;;;;6.30;101485.00;;;;5011292;28;20770;-69
2021/12/12 09:05:13;;;;;;;18.03;9.90;;;;;6.50;101494.00;;;;5016444;28;20253;-72
2021/12/12 09:08:05;;;;;;;16.63;10.13;;;;;6.40;101477.00;;;;5002826;28;20234;-73
2021/12/12 09:10:58;;;;;;;17.67;10.10;;;;;6.60;101499.00;;;;4981779;28;20270;-72
2021/12/12 09:13:48;;;;;;;18.10;10.40;;;;;6.60;101493.00;;;;4975306;28;20373;-74
2021/12/12 09:16:40;;;;;;;17.03;9.90;;;;;6.50;101493.00;;;;5009738;28;20237;-74
2021/12/12 09:19:34;;;;;;;19.33;10.20;;;;;6.50;101506.00;;;;5009575;28;20234;-71
2021/12/12 09:22:26;;;;;;;16.77;9.63;;;;;6.50;101503.00;;;;5009647;28;20284;-73
2021/12/12 09:25:22;;;;;;;15.50;9.33;;;;;6.50;101504.00;;;;4988911;28;20313;-74
2021/12/12 09:28:13;;;;;;;15.43;10.10;;;;;6.50;101489.00;;;;5001819;28;20237;-72
2021/12/12 09:31:03;;;;;;;18.07;9.03;;;;;6.50;101499.00;;;;5010544;28;20225;-74
2021/12/12 09:33:53;;;;;;;15.33;9.20;;;;;6.50;101496.00;;;;5010389;28;20354;-75
2021/12/12 09:36:42;;;;;;;18.23;9.63;;;;;6.60;101498.00;;;;5009942;28;20230;-71
2021/12/12 09:39:33;;;;;;;19.73;10.47;;;;;6.60;101509.00;;;;5003320;28;20241;-71
2021/12/12 09:42:36;;;;;;;15.70;10.00;;;;;6.70;101508.00;;;;5001278;28;20233;-72
2021/12/12 09:45:56;;;;;;;22.83;10.83;;;;;6.60;101513.00;;;;4994445;28;20769;-72
2021/12/12 09:52:37;;;;;;;21.27;11.30;;;;;6.80;101509.00;;;;4989622;28;20229;-72
2021/12/12 09:55:28;;;;;;;20.43;11.67;;;;;6.80;101502.00;;;;4998722;28;20233;-72
2021/12/12 09:58:25;;;;;;;21.23;11.43;;;;;6.80;101514.00;;;;4990759;28;20234;-72
2021/12/12 10:01:13;;;;;;;21.93;11.07;;;;;6.70;101513.00;;;;4992877;28;20300;-74
2021/12/12 10:04:22;;;;;;;18.60;11.47;;;;;6.80;101510.00;;;;4978641;28;20254;-73
2021/12/12 10:07:14;;;;;;;18.30;10.97;;;;;6.80;101506.00;;;;5009631;28;20232;-72
2021/12/12 10:10:06;;;;;;;20.50;11.73;;;;;6.90;101517.00;;;;4996794;28;20243;-76
2021/12/12 10:12:59;;;;;;;19.40;11.53;;;;;7.00;101513.00;;;;4984222;28;20239;-71
2021/12/12 10:15:52;;;;;;;22.80;12.33;;;;;6.90;101507.00;;;;5000320;28;20237;-72
2021/12/12 10:18:50;;;;;;;30.57;15.63;;;;;7.10;101513.00;;;;4992357;28;20238;-73
2021/12/12 10:21:41;;;;;;;19.53;11.30;;;;;7.10;101499.00;;;;5015393;28;20311;-73
2021/12/12 10:24:31;;;;;;;21.03;11.73;;;;;7.20;101503.00;;;;5017520;28;20240;-69
2021/12/12 10:27:24;;;;;;;19.00;11.40;;;;;7.20;101499.00;;;;5010998;28;20276;-73
2021/12/12 10:30:16;;;;;;;23.57;12.53;;;;;7.30;101504.00;;;;5006983;28;20262;-72
2021/12/12 10:33:11;;;;;;;21.30;12.53;;;;;7.20;101502.00;;;;5001896;28;20232;-72
2021/12/12 10:36:01;;;;;;;22.17;11.20;;;;;7.30;101501.00;;;;4991813;28;20307;-72
2021/12/12 10:38:54;;;;;;;21.87;11.63;;;;;7.20;101505.00;;;;4991259;28;20235;-74
2021/12/12 10:41:45;;;;;;;23.00;12.50;;;;;7.20;101506.00;;;;4996637;28;20237;-72
2021/12/12 10:44:36;;;;;;;24.80;13.13;;;;;7.20;101506.00;;;;4990789;28;20250;-72
2021/12/12 10:47:33;;;;;;;26.63;13.87;;;;;7.40;101503.00;;;;5004476;28;20328;-72
2021/12/12 10:50:29;;;;;;;22.73;13.37;;;;;7.30;101494.00;;;;5014097;28;20241;-71
2021/12/12 10:53:22;;;;;;;24.93;12.93;;;;;7.20;101496.00;;;;5015881;28;20229;-68
2021/12/12 10:56:20;;;;;;;23.40;13.80;;;;;7.20;101501.00;;;;5006087;28;20280;-71
2021/12/12 10:59:20;;;;;;;23.60;13.47;;;;;7.30;101498.00;;;;5001126;28;20242;-71
2021/12/12 11:02:08;;;;;;;24.13;13.50;;;;;7.40;101497.00;;;;4984626;28;20243;-72
2021/12/12 11:05:01;;;;;;;26.00;13.97;;;;;7.30;101488.00;;;;4994623;28;20237;-70
2021/12/12 11:07:54;;;;;;;22.60;13.33;;;;;7.30;101487.00;;;;4997980;28;20713;-71
2021/12/12 11:10:42;;;;;;;22.03;13.70;;;;;7.40;101486.00;;;;4999322;28;21402;-71
2021/12/12 11:13:34;;;;;;;26.17;13.87;;;;;7.30;101489.00;;;;5014936;28;20243;-69
2021/12/12 11:16:28;;;;;;;22.67;13.77;;;;;7.40;101468.00;;;;5009615;28;20295;-72
2021/12/12 11:19:17;;;;;;;26.93;13.87;;;;;7.40;101497.00;;;;4981821;28;20243;-71
2021/12/12 11:22:11;;;;;;;26.67;13.67;;;;;7.30;101493.00;;;;4998359;28;20375;-71
2021/12/12 11:25:05;;;;;;;21.73;13.23;;;;;7.50;101487.00;;;;4985634;28;20873;-71
2021/12/12 11:27:57;;;;;;;27.57;13.80;;;;;7.40;101494.00;;;;4994331;28;20240;-71
2021/12/12 11:30:48;;;;;;;24.53;13.80;;;;;7.40;101496.00;;;;5001311;28;20226;-70
2021/12/12 11:33:37;;;;;;;24.97;13.87;;;;;7.50;101491.00;;;;5005696;28;20993;-71
2021/12/12 11:36:27;;;;;;;25.30;13.33;;;;;7.40;101506.00;;;;5016002;28;20678;-69
2021/12/12 11:39:21;;;;;;;24.93;13.43;;;;;7.50;101497.00;;;;4998254;28;20234;-72
2021/12/12 11:42:15;;;;;;;20.90;13.13;;;;;7.50;101495.00;;;;4998224;28;20230;-71
2021/12/12 11:45:08;;;;;;;23.33;12.80;;;;;7.60;101497.00;;;;5003275;28;20244;-71
2021/12/12 11:48:06;;;;;;;21.50;12.50;;;;;7.60;101503.00;;;;5003955;28;20241;-67
2021/12/12 11:50:57;;;;;;;24.27;12.80;;;;;7.70;101502.00;;;;4994928;28;20741;-72
2021/12/12 11:53:46;;;;;;;22.20;12.60;;;;;7.70;101507.00;;;;4974093;28;20226;-71
2021/12/12 11:56:45;;;;;;;23.10;12.13;;;;;7.60;101497.00;;;;4990357;28;20230;-72
2021/12/12 11:59:44;;;;;;;20.77;12.50;;;;;7.60;101497.00;;;;4985262;28;20227;-72
2021/12/12 12:02:35;;;;;;;27.10;13.37;;;;;7.60;101506.00;;;;4993005;28;20237;-71
2021/12/12 12:05:35;;;;;;;21.83;12.37;;;;;7.50;101501.00;;;;5000654;28;20246;-75
2021/12/12 12:08:26;;;;;;;22.77;12.80;;;;;7.60;101508.00;;;;5017434;28;20238;-74
2021/12/12 12:11:28;;;;;;;22.53;13.17;;;;;7.60;101491.00;;;;5012441;28;20233;-74
2021/12/12 12:14:26;;;;;;;24.47;12.00;;;;;7.70;101507.00;;;;4983139;28;20281;-74
2021/12/12 12:17:25;;;;;;;19.70;11.97;;;;;7.70;101496.00;;;;5010386;28;20267;-73
2021/12/12 12:20:24;;;;;;;21.87;12.13;;;;;7.60;101497.00;;;;5010858;28;20889;-73
2021/12/12 12:23:20;;;;;;;20.73;11.30;;;;;7.70;101492.00;;;;5008798;28;20280;-73
2021/12/12 12:30:16;;;;;;;20.30;11.60;;;;;7.70;101494.00;;;;4998871;28;20233;-69
2021/12/12 12:33:47;;;;;;;21.13;12.17;;;;;7.80;101500.00;;;;4976631;28;20611;-71
2021/12/12 12:37:07;;;;;;;20.40;12.27;;;;;7.90;101507.00;;;;5001975;28;20856;-71
2021/12/12 12:40:35;;;;;;;22.33;12.63;;;;;7.80;101500.00;;;;4996741;28;20246;-69
2021/12/12 12:44:22;;;;;;;22.37;12.30;;;;;7.70;101503.00;;;;4999161;28;20229;-69
2021/12/12 12:47:58;;;;;;;19.00;10.57;;;;;7.70;101499.00;;;;4997219;28;20719;-71
2021/12/12 12:51:11;;;;;;;18.00;10.17;;;;;7.70;101500.00;;;;4997594;28;20297;-70
2021/12/12 12:54:20;;;;;;;18.10;10.23;;;;;7.80;101502.00;;;;4987506;28;20313;-70
2021/12/12 12:57:19;;;;;;;19.43;10.60;;;;;7.90;101504.00;;;;5004448;28;20333;-70
2021/12/12 13:00:14;;;;;;;15.87;9.80;;;;;8.00;101512.00;;;;5015233;28;20720;-67
2021/12/12 13:03:19;;;;;;;18.63;11.27;;;;;7.90;101513.00;;;;5002617;28;20231;-69
2021/12/12 13:06:48;;;;;;;18.20;10.60;;;;;7.90;101513.00;;;;4985904;28;20238;-71
2021/12/12 13:09:47;;;;;;;16.93;10.63;;;;;8.00;101515.00;;;;5008629;28;20775;-70
2021/12/12 13:12:55;;;;;;;17.60;10.60;;;;;8.00;101507.00;;;;5018584;28;20238;-70
2021/12/12 13:15:52;;;;;;;17.00;9.57;;;;;8.00;101521.00;;;;5008621;28;20238;-70
2021/12/12 13:18:48;;;;;;;17.30;10.37;;;;;8.00;101521.00;;;;5011839;28;20233;-70
2021/12/12 13:21:43;;;;;;;18.57;10.57;;;;;8.00;101509.00;;;;5020523;28;20229;-71
2021/12/12 13:24:39;;;;;;;17.87;9.33;;;;;8.00;101528.00;;;;5020363;28;20298;-70
2021/12/12 13:27:54;;;;;;;20.80;9.70;;;;;8.00;101521.00;;;;5010222;28;20244;-70
2021/12/12 13:30:43;;;;;;;20.37;10.47;;;;;8.00;101512.00;;;;5015728;28;20226;-70
2021/12/12 13:33:42;;;;;;;18.00;10.07;;;;;8.00;101517.00;;;;5013068;28;20372;-72
2021/12/12 13:36:49;;;;;;;16.43;9.67;;;;;8.10;101520.00;;;;5020484;28;20236;-70
2021/12/12 13:39:48;;;;;;;19.03;10.60;;;;;8.10;101522.00;;;;5019469;28;21090;-72
2021/12/12 13:42:41;;;;;;;18.80;10.73;;;;;8.00;101525.00;;;;5013378;28;20227;-72
2021/12/12 13:45:32;;;;;;;18.20;10.40;;;;;8.00;101523.00;;;;5005097;28;20238;-71
2021/12/12 13:48:28;;;;;;;20.17;10.43;;;;;8.00;101524.00;;;;4993565;28;20242;-69
2021/12/12 13:51:26;;;;;;;19.37;10.90;;;;;8.10;101523.00;;;;4994694;28;20234;-68
2021/12/12 13:54:23;;;;;;;21.43;11.37;;;;;8.00;101534.00;;;;4994129;28;20246;-71
2021/12/12 13:57:25;;;;;;;23.90;12.00;;;;;8.20;101537.00;;;;5000680;28;20319;-73
2021/12/12 14:00:17;;;;;;;26.63;12.00;;;;;8.20;101542.00;;;;4999602;28;20308;-73
2021/12/12 14:03:10;;;;;;;23.33;11.43;;;;;8.10;101540.00;;;;4997592;28;20271;-70
2021/12/12 14:05:59;;;;;;;22.00;11.33;;;;;8.10;101514.00;;;;4993712;28;20233;-70
2021/12/12 14:08:50;;;;;;;21.63;11.37;;;;;8.20;101535.00;;;;4998520;28;20357;-71
2021/12/12 14:11:41;;;;;;;21.33;11.50;;;;;8.20;101545.00;;;;5006016;28;20305;-71
2021/12/12 14:14:33;;;;;;;23.17;11.97;;;;;8.30;101546.00;;;;5016369;28;20891;-70
2021/12/12 14:17:26;;;;;;;23.53;12.60;;;;;8.20;101549.00;;;;4984275;28;20298;-72
2021/12/12 14:20:17;;;;;;;26.63;12.23;;;;;8.20;101553.00;;;;4989953;28;20226;-71
2021/12/12 14:23:06;;;;;;;24.53;11.83;;;;;8.30;101553.00;;;;5001806;28;20300;-71
2021/12/12 14:25:57;;;;;;;23.37;12.37;;;;;8.30;101543.00;;;;5001159;28;20265;-73
2021/12/12 14:28:48;;;;;;;22.70;12.10;;;;;8.20;101546.00;;;;5008741;28;20377;-71